Terminal Aerodrome Forecast
Issued by NWS Memphis, TN

Home | Current Version | Previous Version | Text Only | Print | Product List | Glossary On
Versions: 1 2 3 4 5 6 7 8 9 10 11 12 13 14 15 16 17 18 19 20 21 22 23 24 25 26 27 28 29 30 31
000
FTUS44 KMEG 281233 AAA
TAFMEM
TAF AMD
KMEM 281233Z 2813/2912 25005KT 6SM -SHRA BR SCT008 OVC015
      TEMPO 2813/2815 5SM BR BKN007
     FM281600 25009KT P6SM VCTS SCT025CB BKN035
     FM282000 24008KT P6SM SCT040 BKN060
     FM290100 21005KT P6SM FEW025 BKN200=

USA.gov is the U.S. government's official web portal to all federal, state and local government web resources and services.